sensor_id;sensor_type;location;lat;lon;timestamp;temperature;humidity
21489;DHT22;10906;45.194;5.684;2023-09-19T04:42:45;17.10;99.90
21489;DHT22;10906;45.194;5.684;2023-09-19T04:45:30;17.10;99.90
21489;DHT22;10906;45.194;5.684;2023-09-19T04:48:14;17.10;99.90
21489;DHT22;10906;45.194;5.684;2023-09-19T04:51:00;17.10;99.90
21489;DHT22;10906;45.194;5.684;2023-09-19T04:53:45;17.10;99.90
21489;DHT22;10906;45.194;5.684;2023-09-19T04:56:29;17.10;99.90
21489;DHT22;10906;45.194;5.684;2023-09-19T04:59:14;17.10;99.90
21489;DHT22;10906;45.194;5.684;2023-09-19T05:02:00;17.10;99.90
21489;DHT22;10906;45.194;5.684;2023-09-19T05:04:44;17.10;99.90
21489;DHT22;10906;45.194;5.684;2023-09-19T05:07:28;17.00;99.90
21489;DHT22;10906;45.194;5.684;2023-09-19T05:10:13;17.00;99.90
21489;DHT22;10906;45.194;5.684;2023-09-19T05:12:57;17.00;99.90
21489;DHT22;10906;45.194;5.684;2023-09-19T05:15:41;17.00;99.90
21489;DHT22;10906;45.194;5.684;2023-09-19T05:18:25;17.00;99.90
21489;DHT22;10906;45.194;5.684;2023-09-19T05:21:09;17.00;99.90
21489;DHT22;10906;45.194;5.684;2023-09-19T05:23:54;16.90;99.90
21489;DHT22;10906;45.194;5.684;2023-09-19T05:26:38;17.00;99.90
21489;DHT22;10906;45.194;5.684;2023-09-19T05:29:24;17.00;99.90
21489;DHT22;10906;45.194;5.684;2023-09-19T05:32:09;17.00;99.90
21489;DHT22;10906;45.194;5.684;2023-09-19T05:34:54;17.00;99.90
21489;DHT22;10906;45.194;5.684;2023-09-19T05:37:40;17.00;99.90
21489;DHT22;10906;45.194;5.684;2023-09-19T05:40:26;17.00;99.90
21489;DHT22;10906;45.194;5.684;2023-09-19T05:43:11;17.00;99.90
21489;DHT22;10906;45.194;5.684;2023-09-19T05:45:55;16.90;99.90
21489;DHT22;10906;45.194;5.684;2023-09-19T05:48:40;16.80;99.90
21489;DHT22;10906;45.194;5.684;2023-09-19T05:51:26;16.90;99.90
21489;DHT22;10906;45.194;5.684;2023-09-19T05:54:12;16.90;99.90
21489;DHT22;10906;45.194;5.684;2023-09-19T05:56:57;16.90;99.90
21489;DHT22;10906;45.194;5.684;2023-09-19T05:59:42;16.90;99.90
21489;DHT22;10906;45.194;5.684;2023-09-19T06:02:27;16.90;99.90
21489;DHT22;10906;45.194;5.684;2023-09-19T06:05:13;16.90;99.90
21489;DHT22;10906;45.194;5.684;2023-09-19T06:07:59;16.90;99.90
21489;DHT22;10906;45.194;5.684;2023-09-19T06:10:51;16.90;99.90
21489;DHT22;10906;45.194;5.684;2023-09-19T06:13:56;16.90;99.90
21489;DHT22;10906;45.194;5.684;2023-09-19T06:16:40;17.00;99.90
21489;DHT22;10906;45.194;5.684;2023-09-19T06:19:26;17.00;99.90
21489;DHT22;10906;45.194;5.684;2023-09-19T06:22:10;17.00;99.90
21489;DHT22;10906;45.194;5.684;2023-09-19T06:24:55;17.00;99.90
21489;DHT22;10906;45.194;5.684;2023-09-19T06:27:40;17.00;99.90
21489;DHT22;10906;45.194;5.684;2023-09-19T06:30:27;17.00;99.90
21489;DHT22;10906;45.194;5.684;2023-09-19T06:33:13;16.90;99.90
21489;DHT22;10906;45.194;5.684;2023-09-19T06:35:58;17.00;99.90
21489;DHT22;10906;45.194;5.684;2023-09-19T06:38:44;16.90;99.90
21489;DHT22;10906;45.194;5.684;2023-09-19T06:41:29;16.90;99.90
21489;DHT22;10906;45.194;5.684;2023-09-19T06:44:13;16.90;99.90
21489;DHT22;10906;45.194;5.684;2023-09-19T06:46:59;16.90;99.90
21489;DHT22;10906;45.194;5.684;2023-09-19T06:49:43;16.90;99.90
21489;DHT22;10906;45.194;5.684;2023-09-19T06:52:30;16.90;99.90
21489;DHT22;10906;45.194;5.684;2023-09-19T06:55:14;17.00;99.90
21489;DHT22;10906;45.194;5.684;2023-09-19T06:58:00;16.90;99.90
21489;DHT22;10906;45.194;5.684;2023-09-19T07:00:44;16.90;99.90
21489;DHT22;10906;45.194;5.684;2023-09-19T07:03:28;16.90;99.90
21489;DHT22;10906;45.194;5.684;2023-09-19T07:06:13;17.00;99.90
21489;DHT22;10906;45.194;5.684;2023-09-19T07:08:57;17.00;99.90
21489;DHT22;10906;45.194;5.684;2023-09-19T07:11:42;17.00;99.90
21489;DHT22;10906;45.194;5.684;2023-09-19T07:14:26;17.00;99.90
21489;DHT22;10906;45.194;5.684;2023-09-19T07:17:11;17.00;99.90
21489;DHT22;10906;45.194;5.684;2023-09-19T07:19:55;17.00;99.90
21489;DHT22;10906;45.194;5.684;2023-09-19T07:22:39;17.10;99.90
21489;DHT22;10906;45.194;5.684;2023-09-19T07:25:23;17.10;99.90
21489;DHT22;10906;45.194;5.684;2023-09-19T07:28:08;17.10;99.90
21489;DHT22;10906;45.194;5.684;2023-09-19T07:30:52;17.10;99.90
21489;DHT22;10906;45.194;5.684;2023-09-19T07:33:37;17.20;99.90
21489;DHT22;10906;45.194;5.684;2023-09-19T07:36:21;17.30;99.90
21489;DHT22;10906;45.194;5.684;2023-09-19T07:39:05;17.30;99.90
21489;DHT22;10906;45.194;5.684;2023-09-19T07:41:50;17.30;99.90
21489;DHT22;10906;45.194;5.684;2023-09-19T07:44:35;17.40;99.90
21489;DHT22;10906;45.194;5.684;2023-09-19T07:47:20;17.40;99.90
21489;DHT22;10906;45.194;5.684;2023-09-19T07:50:07;17.40;99.90
21489;DHT22;10906;45.194;5.684;2023-09-19T07:52:51;17.30;99.90
21489;DHT22;10906;45.194;5.684;2023-09-19T07:55:36;17.30;99.90
21489;DHT22;10906;45.194;5.684;2023-09-19T07:58:20;17.30;99.90
21489;DHT22;10906;45.194;5.684;2023-09-19T08:01:07;17.40;99.90
21489;DHT22;10906;45.194;5.684;2023-09-19T08:03:51;17.40;99.90
21489;DHT22;10906;45.194;5.684;2023-09-19T08:06:35;17.50;99.90
21489;DHT22;10906;45.194;5.684;2023-09-19T08:09:22;17.70;99.90
21489;DHT22;10906;45.194;5.684;2023-09-19T08:12:06;17.80;99.90
21489;DHT22;10906;45.194;5.684;2023-09-19T08:14:54;17.80;99.90
21489;DHT22;10906;45.194;5.684;2023-09-19T08:17:39;17.90;99.90
21489;DHT22;10906;45.194;5.684;2023-09-19T08:20:24;17.80;99.90
21489;DHT22;10906;45.194;5.684;2023-09-19T08:23:08;17.80;99.90
21489;DHT22;10906;45.194;5.684;2023-09-19T08:25:56;17.90;99.90
21489;DHT22;10906;45.194;5.684;2023-09-19T08:28:40;18.00;99.90
21489;DHT22;10906;45.194;5.684;2023-09-19T08:31:24;18.20;99.90
21489;DHT22;10906;45.194;5.684;2023-09-19T08:34:09;18.40;99.90
21489;DHT22;10906;45.194;5.684;2023-09-19T08:36:53;18.60;99.90
21489;DHT22;10906;45.194;5.684;2023-09-19T08:39:41;18.80;99.90
21489;DHT22;10906;45.194;5.684;2023-09-19T08:42:25;19.10;99.90
21489;DHT22;10906;45.194;5.684;2023-09-19T08:45:09;19.20;99.90
21489;DHT22;10906;45.194;5.684;2023-09-19T08:47:59;19.20;99.90
21489;DHT22;10906;45.194;5.684;2023-09-19T08:50:49;19.40;99.90
21489;DHT22;10906;45.194;5.684;2023-09-19T08:53:41;19.60;99.90
21489;DHT22;10906;45.194;5.684;2023-09-19T08:56:26;19.80;99.90
21489;DHT22;10906;45.194;5.684;2023-09-19T08:59:13;19.90;99.90
21489;DHT22;10906;45.194;5.684;2023-09-19T09:01:58;19.70;99.90
21489;DHT22;10906;45.194;5.684;2023-09-19T09:04:43;19.60;99.90
21489;DHT22;10906;45.194;5.684;2023-09-19T09:07:28;19.60;99.90
21489;DHT22;10906;45.194;5.684;2023-09-19T09:10:12;19.80;99.90
21489;DHT22;10906;45.194;5.684;2023-09-19T09:12:57;20.00;99.90
21489;DHT22;10906;45.194;5.684;2023-09-19T09:15:42;20.20;99.90
21489;DHT22;10906;45.194;5.684;2023-09-19T09:18:28;20.40;99.90
21489;DHT22;10906;45.194;5.684;2023-09-19T09:21:16;20.50;99.90
21489;DHT22;10906;45.194;5.684;2023-09-19T09:24:19;20.70;99.90
21489;DHT22;10906;45.194;5.684;2023-09-19T09:27:05;20.90;99.90
21489;DHT22;10906;45.194;5.684;2023-09-19T09:29:52;20.70;99.90
21489;DHT22;10906;45.194;5.684;2023-09-19T09:32:38;20.80;99.90
21489;DHT22;10906;45.194;5.684;2023-09-19T09:35:23;20.60;99.90
21489;DHT22;10906;45.194;5.684;2023-09-19T09:38:07;20.60;99.90
21489;DHT22;10906;45.194;5.684;2023-09-19T09:40:54;20.70;99.90
21489;DHT22;10906;45.194;5.684;2023-09-19T09:43:50;21.00;99.90
21489;DHT22;10906;45.194;5.684;2023-09-19T09:46:36;21.30;99.90
21489;DHT22;10906;45.194;5.684;2023-09-19T09:49:36;21.60;99.90
21489;DHT22;10906;45.194;5.684;2023-09-19T09:52:21;21.50;99.90
21489;DHT22;10906;45.194;5.684;2023-09-19T09:55:08;21.60;99.90
21489;DHT22;10906;45.194;5.684;2023-09-19T09:58:15;21.60;99.90
21489;DHT22;10906;45.194;5.684;2023-09-19T10:01:01;21.60;99.90
21489;DHT22;10906;45.194;5.684;2023-09-19T10:03:58;21.50;99.90
21489;DHT22;10906;45.194;5.684;2023-09-19T10:06:44;21.50;99.90
21489;DHT22;10906;45.194;5.684;2023-09-19T10:09:44;21.60;99.90
21489;DHT22;10906;45.194;5.684;2023-09-19T10:12:29;21.70;99.90
21489;DHT22;10906;45.194;5.684;2023-09-19T10:15:15;21.90;99.90
21489;DHT22;10906;45.194;5.684;2023-09-19T10:18:00;22.00;99.90
21489;DHT22;10906;45.194;5.684;2023-09-19T10:20:45;21.60;99.90
21489;DHT22;10906;45.194;5.684;2023-09-19T10:23:29;22.10;99.90
21489;DHT22;10906;45.194;5.684;2023-09-19T10:26:18;22.20;99.90
21489;DHT22;10906;45.194;5.684;2023-09-19T10:29:03;22.40;99.90
21489;DHT22;10906;45.194;5.684;2023-09-19T10:31:52;22.60;99.90
21489;DHT22;10906;45.194;5.684;2023-09-19T10:34:37;22.80;99.90
21489;DHT22;10906;45.194;5.684;2023-09-19T10:37:25;23.00;99.90
21489;DHT22;10906;45.194;5.684;2023-09-19T10:40:11;23.00;99.90
21489;DHT22;10906;45.194;5.684;2023-09-19T10:43:03;23.00;99.90
21489;DHT22;10906;45.194;5.684;2023-09-19T10:45:50;23.00;99.90
21489;DHT22;10906;45.194;5.684;2023-09-19T10:48:36;22.60;99.90
21489;DHT22;10906;45.194;5.684;2023-09-19T10:51:22;23.20;99.90
21489;DHT22;10906;45.194;5.684;2023-09-19T10:54:14;23.20;99.90
21489;DHT22;10906;45.194;5.684;2023-09-19T10:56:59;23.30;99.90
21489;DHT22;10906;45.194;5.684;2023-09-19T11:00:04;23.30;99.90
21489;DHT22;10906;45.194;5.684;2023-09-19T11:03:15;23.40;99.90
21489;DHT22;10906;45.194;5.684;2023-09-19T11:06:03;23.30;99.90
21489;DHT22;10906;45.194;5.684;2023-09-19T11:11:42;23.30;99.90
21489;DHT22;10906;45.194;5.684;2023-09-19T11:14:28;23.40;99.90
21489;DHT22;10906;45.194;5.684;2023-09-19T11:17:29;23.30;99.90
21489;DHT22;10906;45.194;5.684;2023-09-19T11:20:17;23.30;99.90
21489;DHT22;10906;45.194;5.684;2023-09-19T11:25:55;23.40;99.90
21489;DHT22;10906;45.194;5.684;2023-09-19T11:28:39;23.10;99.90
21489;DHT22;10906;45.194;5.684;2023-09-19T11:31:40;22.80;99.90
21489;DHT22;10906;45.194;5.684;2023-09-19T11:40:17;22.80;99.90
21489;DHT22;10906;45.194;5.684;2023-09-19T11:43:06;22.80;99.90
21489;DHT22;10906;45.194;5.684;2023-09-19T11:46:06;23.00;99.90
21489;DHT22;10906;45.194;5.684;2023-09-19T11:48:51;23.30;99.90
21489;DHT22;10906;45.194;5.684;2023-09-19T11:51:40;23.40;99.90
21489;DHT22;10906;45.194;5.684;2023-09-19T11:54:25;23.40;99.90
21489;DHT22;10906;45.194;5.684;2023-09-19T11:57:12;23.50;99.90
21489;DHT22;10906;45.194;5.684;2023-09-19T12:00:04;23.50;99.90
21489;DHT22;10906;45.194;5.684;2023-09-19T12:02:54;23.50;99.90
21489;DHT22;10906;45.194;5.684;2023-09-19T12:05:39;23.70;99.90
21489;DHT22;10906;45.194;5.684;2023-09-19T12:08:23;23.80;99.90
21489;DHT22;10906;45.194;5.684;2023-09-19T12:11:11;23.60;99.90
21489;DHT22;10906;45.194;5.684;2023-09-19T12:13:55;23.60;99.90
21489;DHT22;10906;45.194;5.684;2023-09-19T12:16:50;23.70;99.90
21489;DHT22;10906;45.194;5.684;2023-09-19T12:19:36;23.80;99.90
21489;DHT22;10906;45.194;5.684;2023-09-19T12:22:20;23.80;99.90
21489;DHT22;10906;45.194;5.684;2023-09-19T12:25:08;23.70;99.90
21489;DHT22;10906;45.194;5.684;2023-09-19T12:27:55;23.70;99.90
21489;DHT22;10906;45.194;5.684;2023-09-19T12:30:40;22.60;99.90
21489;DHT22;10906;45.194;5.684;2023-09-19T12:33:25;23.80;99.90
21489;DHT22;10906;45.194;5.684;2023-09-19T12:36:22;23.80;99.90
21489;DHT22;10906;45.194;5.684;2023-09-19T12:39:22;23.80;99.90
21489;DHT22;10906;45.194;5.684;2023-09-19T12:42:10;23.80;99.40
21489;DHT22;10906;45.194;5.684;2023-09-19T12:44:57;23.90;99.00
21489;DHT22;10906;45.194;5.684;2023-09-19T12:53:56;24.00;99.90
21489;DHT22;10906;45.194;5.684;2023-09-19T12:56:41;24.20;99.90
21489;DHT22;10906;45.194;5.684;2023-09-19T12:59:31;24.20;99.20
21489;DHT22;10906;45.194;5.684;2023-09-19T13:02:16;24.20;99.50
21489;DHT22;10906;45.194;5.684;2023-09-19T13:05:04;24.30;98.40
21489;DHT22;10906;45.194;5.684;2023-09-19T13:07:51;24.30;99.50
21489;DHT22;10906;45.194;5.684;2023-09-19T13:10:59;24.40;98.80
21489;DHT22;10906;45.194;5.684;2023-09-19T13:13:43;24.30;98.50
21489;DHT22;10906;45.194;5.684;2023-09-19T13:19:40;24.20;98.30
21489;DHT22;10906;45.194;5.684;2023-09-19T13:25:26;24.20;99.90
21489;DHT22;10906;45.194;5.684;2023-09-19T13:28:13;24.30;99.80
21489;DHT22;10906;45.194;5.684;2023-09-19T13:30:58;24.40;98.50
21489;DHT22;10906;45.194;5.684;2023-09-19T13:33:43;24.30;97.50
21489;DHT22;10906;45.194;5.684;2023-09-19T13:36:27;24.40;98.40
21489;DHT22;10906;45.194;5.684;2023-09-19T13:39:12;24.40;98.40
21489;DHT22;10906;45.194;5.684;2023-09-19T13:42:00;24.50;98.60
21489;DHT22;10906;45.194;5.684;2023-09-19T13:44:46;24.50;99.10
21489;DHT22;10906;45.194;5.684;2023-09-19T13:47:30;24.60;99.40
21489;DHT22;10906;45.194;5.684;2023-09-19T13:50:15;24.60;98.40
21489;DHT22;10906;45.194;5.684;2023-09-19T13:53:00;24.50;97.90
21489;DHT22;10906;45.194;5.684;2023-09-19T13:55:44;24.60;98.10
21489;DHT22;10906;45.194;5.684;2023-09-19T13:58:28;24.60;97.60
21489;DHT22;10906;45.194;5.684;2023-09-19T14:01:15;24.70;98.10
21489;DHT22;10906;45.194;5.684;2023-09-19T14:03:59;24.70;96.70
21489;DHT22;10906;45.194;5.684;2023-09-19T14:06:44;24.60;96.10
21489;DHT22;10906;45.194;5.684;2023-09-19T14:09:29;24.60;98.10
21489;DHT22;10906;45.194;5.684;2023-09-19T14:12:14;24.60;98.10
21489;DHT22;10906;45.194;5.684;2023-09-19T14:14:58;22.90;96.50
21489;DHT22;10906;45.194;5.684;2023-09-19T14:17:42;24.60;96.40
21489;DHT22;10906;45.194;5.684;2023-09-19T14:20:28;24.40;95.60
21489;DHT22;10906;45.194;5.684;2023-09-19T14:23:14;24.70;95.90
21489;DHT22;10906;45.194;5.684;2023-09-19T14:26:00;24.60;96.40
21489;DHT22;10906;45.194;5.684;2023-09-19T14:28:45;24.60;96.00
21489;DHT22;10906;45.194;5.684;2023-09-19T14:31:29;24.70;96.40
21489;DHT22;10906;45.194;5.684;2023-09-19T14:34:13;24.80;95.10
21489;DHT22;10906;45.194;5.684;2023-09-19T14:36:59;24.80;94.40
21489;DHT22;10906;45.194;5.684;2023-09-19T14:39:43;24.80;94.90
21489;DHT22;10906;45.194;5.684;2023-09-19T14:42:28;24.70;94.70
21489;DHT22;10906;45.194;5.684;2023-09-19T14:45:13;26.20;96.70
21489;DHT22;10906;45.194;5.684;2023-09-19T14:48:00;24.90;94.50
21489;DHT22;10906;45.194;5.684;2023-09-19T14:50:44;25.10;94.90
21489;DHT22;10906;45.194;5.684;2023-09-19T14:53:30;25.40;93.50
21489;DHT22;10906;45.194;5.684;2023-09-19T14:56:14;26.00;93.30
21489;DHT22;10906;45.194;5.684;2023-09-19T14:59:02;26.40;91.80
21489;DHT22;10906;45.194;5.684;2023-09-19T15:01:47;25.80;92.50
21489;DHT22;10906;45.194;5.684;2023-09-19T15:04:34;25.50;92.90
21489;DHT22;10906;45.194;5.684;2023-09-19T15:07:18;25.40;94.30
21489;DHT22;10906;45.194;5.684;2023-09-19T15:10:03;26.80;93.60
21489;DHT22;10906;45.194;5.684;2023-09-19T15:12:47;28.90;90.20
21489;DHT22;10906;45.194;5.684;2023-09-19T15:15:31;29.90;84.70
21489;DHT22;10906;45.194;5.684;2023-09-19T15:18:16;30.00;83.80
21489;DHT22;10906;45.194;5.684;2023-09-19T15:21:00;30.60;78.30
21489;DHT22;10906;45.194;5.684;2023-09-19T15:23:45;29.30;76.10
21489;DHT22;10906;45.194;5.684;2023-09-19T15:26:30;31.80;72.90
21489;DHT22;10906;45.194;5.684;2023-09-19T15:29:14;32.00;73.90
21489;DHT22;10906;45.194;5.684;2023-09-19T15:32:00;31.70;70.00
21489;DHT22;10906;45.194;5.684;2023-09-19T15:34:47;31.90;71.60
21489;DHT22;10906;45.194;5.684;2023-09-19T15:37:31;31.50;69.80
21489;DHT22;10906;45.194;5.684;2023-09-19T15:40:15;31.60;71.50
21489;DHT22;10906;45.194;5.684;2023-09-19T15:42:59;31.60;72.30
21489;DHT22;10906;45.194;5.684;2023-09-19T15:45:47;31.50;67.50
21489;DHT22;10906;45.194;5.684;2023-09-19T15:48:32;32.20;67.60
21489;DHT22;10906;45.194;5.684;2023-09-19T15:51:16;33.00;75.60
21489;DHT22;10906;45.194;5.684;2023-09-19T15:54:00;33.90;66.60
21489;DHT22;10906;45.194;5.684;2023-09-19T15:56:46;33.90;63.10
21489;DHT22;10906;45.194;5.684;2023-09-19T15:59:35;33.30;59.80
21489;DHT22;10906;45.194;5.684;2023-09-19T16:02:19;32.40;63.50
21489;DHT22;10906;45.194;5.684;2023-09-19T16:05:04;31.60;63.70
21489;DHT22;10906;45.194;5.684;2023-09-19T16:07:51;29.90;66.10
21489;DHT22;10906;45.194;5.684;2023-09-19T16:10:36;27.80;71.30
21489;DHT22;10906;45.194;5.684;2023-09-19T16:13:21;26.40;78.50
21489;DHT22;10906;45.194;5.684;2023-09-19T16:16:07;25.60;85.90
21489;DHT22;10906;45.194;5.684;2023-09-19T16:18:52;25.10;84.50
21489;DHT22;10906;45.194;5.684;2023-09-19T16:21:39;24.70;92.00
21489;DHT22;10906;45.194;5.684;2023-09-19T16:24:27;24.40;88.10
21489;DHT22;10906;45.194;5.684;2023-09-19T16:27:12;24.10;89.00
21489;DHT22;10906;45.194;5.684;2023-09-19T16:29:56;24.00;91.00
21489;DHT22;10906;45.194;5.684;2023-09-19T16:32:40;23.90;90.30
21489;DHT22;10906;45.194;5.684;2023-09-19T16:35:25;23.70;90.00
21489;DHT22;10906;45.194;5.684;2023-09-19T16:38:09;23.60;90.90
21489;DHT22;10906;45.194;5.684;2023-09-19T16:40:54;23.60;91.10
21489;DHT22;10906;45.194;5.684;2023-09-19T16:43:39;23.40;90.60
21489;DHT22;10906;45.194;5.684;2023-09-19T16:46:23;23.20;91.30
21489;DHT22;10906;45.194;5.684;2023-09-19T16:49:07;23.20;92.40
21489;DHT22;10906;45.194;5.684;2023-09-19T16:51:52;23.10;91.70
21489;DHT22;10906;45.194;5.684;2023-09-19T16:54:37;23.00;92.30
21489;DHT22;10906;45.194;5.684;2023-09-19T16:57:22;23.00;92.20
21489;DHT22;10906;45.194;5.684;2023-09-19T17:00:07;22.90;93.60
21489;DHT22;10906;45.194;5.684;2023-09-19T17:02:51;22.80;95.40
21489;DHT22;10906;45.194;5.684;2023-09-19T17:05:36;22.80;93.20
21489;DHT22;10906;45.194;5.684;2023-09-19T17:08:24;22.70;95.90
21489;DHT22;10906;45.194;5.684;2023-09-19T17:11:16;22.60;93.40
21489;DHT22;10906;45.194;5.684;2023-09-19T17:14:01;22.60;95.20
21489;DHT22;10906;45.194;5.684;2023-09-19T17:16:47;22.60;96.80
21489;DHT22;10906;45.194;5.684;2023-09-19T17:19:33;22.40;96.70
21489;DHT22;10906;45.194;5.684;2023-09-19T17:22:17;22.30;98.00
21489;DHT22;10906;45.194;5.684;2023-09-19T17:25:01;22.20;98.00
21489;DHT22;10906;45.194;5.684;2023-09-19T17:27:47;22.10;98.80
21489;DHT22;10906;45.194;5.684;2023-09-19T17:30:31;22.00;99.90
21489;DHT22;10906;45.194;5.684;2023-09-19T17:33:16;21.90;99.90
21489;DHT22;10906;45.194;5.684;2023-09-19T17:36:04;21.80;99.90
21489;DHT22;10906;45.194;5.684;2023-09-19T17:38:51;21.60;99.90
21489;DHT22;10906;45.194;5.684;2023-09-19T17:41:37;21.50;99.90
21489;DHT22;10906;45.194;5.684;2023-09-19T17:44:21;21.40;99.90
21489;DHT22;10906;45.194;5.684;2023-09-19T17:47:05;21.40;99.90
21489;DHT22;10906;45.194;5.684;2023-09-19T17:49:49;21.20;99.90
21489;DHT22;10906;45.194;5.684;2023-09-19T17:52:34;21.20;99.90
21489;DHT22;10906;45.194;5.684;2023-09-19T17:55:18;21.10;99.90
21489;DHT22;10906;45.194;5.684;2023-09-19T17:58:02;21.10;99.90
21489;DHT22;10906;45.194;5.684;2023-09-19T18:00:47;21.00;99.90
21489;DHT22;10906;45.194;5.684;2023-09-19T18:03:31;21.00;99.90
21489;DHT22;10906;45.194;5.684;2023-09-19T18:06:15;20.90;99.90
21489;DHT22;10906;45.194;5.684;2023-09-19T18:09:03;20.80;99.90
21489;DHT22;10906;45.194;5.684;2023-09-19T18:11:49;20.80;99.90
21489;DHT22;10906;45.194;5.684;2023-09-19T18:14:33;20.80;99.90
21489;DHT22;10906;45.194;5.684;2023-09-19T18:17:17;20.80;99.90
21489;DHT22;10906;45.194;5.684;2023-09-19T18:20:02;20.80;99.90
21489;DHT22;10906;45.194;5.684;2023-09-19T18:22:48;20.90;99.90
21489;DHT22;10906;45.194;5.684;2023-09-19T18:25:32;20.80;99.90
21489;DHT22;10906;45.194;5.684;2023-09-19T18:28:16;20.80;99.90
21489;DHT22;10906;45.194;5.684;2023-09-19T18:31:04;20.70;99.90
21489;DHT22;10906;45.194;5.684;2023-09-19T18:33:49;20.50;99.90
21489;DHT22;10906;45.194;5.684;2023-09-19T18:36:35;20.40;99.90
21489;DHT22;10906;45.194;5.684;2023-09-19T18:39:20;20.40;99.90
21489;DHT22;10906;45.194;5.684;2023-09-19T18:42:04;20.30;99.90
21489;DHT22;10906;45.194;5.684;2023-09-19T18:44:48;20.20;99.90
21489;DHT22;10906;45.194;5.684;2023-09-19T18:47:33;20.30;99.90
21489;DHT22;10906;45.194;5.684;2023-09-19T18:50:17;20.20;99.90
21489;DHT22;10906;45.194;5.684;2023-09-19T18:53:01;20.10;99.90
21489;DHT22;10906;45.194;5.684;2023-09-19T18:55:47;20.00;99.90
21489;DHT22;10906;45.194;5.684;2023-09-19T18:58:31;20.00;99.90
21489;DHT22;10906;45.194;5.684;2023-09-19T19:01:15;20.00;99.90
21489;DHT22;10906;45.194;5.684;2023-09-19T19:07:04;19.30;99.90
21489;DHT22;10906;45.194;5.684;2023-09-19T19:09:48;20.00;99.90
21489;DHT22;10906;45.194;5.684;2023-09-19T19:16:14;19.90;99.90
21489;DHT22;10906;45.194;5.684;2023-09-19T19:25:10;19.80;99.90
21489;DHT22;10906;45.194;5.684;2023-09-19T19:31:32;19.50;99.90
21489;DHT22;10906;45.194;5.684;2023-09-19T19:34:18;18.40;99.90
21489;DHT22;10906;45.194;5.684;2023-09-19T19:37:04;19.40;99.90
21489;DHT22;10906;45.194;5.684;2023-09-19T19:39:49;19.40;99.90
21489;DHT22;10906;45.194;5.684;2023-09-19T19:42:35;19.30;99.90
21489;DHT22;10906;45.194;5.684;2023-09-19T19:49:00;19.30;99.90
21489;DHT22;10906;45.194;5.684;2023-09-19T19:51:44;19.10;99.90
21489;DHT22;10906;45.194;5.684;2023-09-19T19:54:30;19.20;99.90
21489;DHT22;10906;45.194;5.684;2023-09-19T19:57:14;19.20;99.90
21489;DHT22;10906;45.194;5.684;2023-09-19T19:59:59;19.20;99.90
21489;DHT22;10906;45.194;5.684;2023-09-19T20:02:43;19.20;99.90
21489;DHT22;10906;45.194;5.684;2023-09-19T20:05:28;19.20;99.90
21489;DHT22;10906;45.194;5.684;2023-09-19T20:08:12;19.20;99.90
21489;DHT22;10906;45.194;5.684;2023-09-19T20:11:02;19.00;99.90
21489;DHT22;10906;45.194;5.684;2023-09-19T20:13:50;20.20;99.90
21489;DHT22;10906;45.194;5.684;2023-09-19T20:16:34;18.90;99.90
21489;DHT22;10906;45.194;5.684;2023-09-19T20:19:20;18.80;99.90
21489;DHT22;10906;45.194;5.684;2023-09-19T20:22:05;18.80;99.90
21489;DHT22;10906;45.194;5.684;2023-09-19T20:24:52;18.80;99.90
21489;DHT22;10906;45.194;5.684;2023-09-19T20:27:39;18.80;99.90
21489;DHT22;10906;45.194;5.684;2023-09-19T20:30:23;18.70;99.90
21489;DHT22;10906;45.194;5.684;2023-09-19T20:33:08;18.70;99.90
21489;DHT22;10906;45.194;5.684;2023-09-19T20:35:57;18.70;99.90
21489;DHT22;10906;45.194;5.684;2023-09-19T20:38:43;18.70;99.90
21489;DHT22;10906;45.194;5.684;2023-09-19T20:41:27;18.60;99.90
21489;DHT22;10906;45.194;5.684;2023-09-19T20:44:11;18.60;99.90
21489;DHT22;10906;45.194;5.684;2023-09-19T20:46:56;18.60;99.90
21489;DHT22;10906;45.194;5.684;2023-09-19T20:49:41;18.50;99.90
21489;DHT22;10906;45.194;5.684;2023-09-19T20:52:25;18.40;99.90
21489;DHT22;10906;45.194;5.684;2023-09-19T20:55:09;18.40;99.90
21489;DHT22;10906;45.194;5.684;2023-09-19T20:57:53;18.30;99.90
21489;DHT22;10906;45.194;5.684;2023-09-19T21:00:39;18.30;99.90
21489;DHT22;10906;45.194;5.684;2023-09-19T21:03:23;18.20;99.90
21489;DHT22;10906;45.194;5.684;2023-09-19T21:06:08;18.10;99.90
21489;DHT22;10906;45.194;5.684;2023-09-19T21:08:54;18.10;99.90
21489;DHT22;10906;45.194;5.684;2023-09-19T21:11:39;18.10;99.90
21489;DHT22;10906;45.194;5.684;2023-09-19T21:14:23;18.10;99.90
21489;DHT22;10906;45.194;5.684;2023-09-19T21:17:07;18.10;99.90
21489;DHT22;10906;45.194;5.684;2023-09-19T21:19:52;18.00;99.90
21489;DHT22;10906;45.194;5.684;2023-09-19T21:22:36;17.90;99.90
21489;DHT22;10906;45.194;5.684;2023-09-19T21:25:20;17.90;99.90
21489;DHT22;10906;45.194;5.684;2023-09-19T21:28:04;17.90;99.90
21489;DHT22;10906;45.194;5.684;2023-09-19T21:31:02;17.90;99.90
21489;DHT22;10906;45.194;5.684;2023-09-19T21:33:49;17.90;99.90
21489;DHT22;10906;45.194;5.684;2023-09-19T21:36:33;17.90;99.90
21489;DHT22;10906;45.194;5.684;2023-09-19T21:39:17;17.80;99.90
21489;DHT22;10906;45.194;5.684;2023-09-19T21:42:02;17.80;99.90
21489;DHT22;10906;45.194;5.684;2023-09-19T21:44:47;17.80;99.90
21489;DHT22;10906;45.194;5.684;2023-09-19T21:47:32;17.80;99.90
21489;DHT22;10906;45.194;5.684;2023-09-19T21:50:16;17.80;99.90
21489;DHT22;10906;45.194;5.684;2023-09-19T21:53:02;17.80;99.90
21489;DHT22;10906;45.194;5.684;2023-09-19T21:55:47;17.80;99.90
21489;DHT22;10906;45.194;5.684;2023-09-19T21:58:31;17.80;99.90
